Terminal Aerodrome Forecast
Issued by NWS

Home | Current Version | Previous Version | Text Only | Print | Product List | Glossary On
Versions: 1 2 3 4 5 6 7 8 9 10 11 12 13 14 15 16 17 18 19 20 21 22 23 24 25 26 27
000
FTUS41 KOKX 012300
TAFHPN
TAF
KHPN 012334Z 0200/0224 VRB05KT P6SM FEW035 BKN050
     FM020300 VRB03KT P6SM FEW025 SCT050 BKN150
     FM020700 VRB03KT 4SM BR SCT020 SCT050 BKN150
      TEMPO 0209/0213 2SM BR BKN015
     FM021400 25005KT 6SM HZ FEW020 SCT050
     FM021900 18007KT P6SM SCT050
      AMD NOT SKED=

USA.gov is the U.S. government's official web portal to all federal, state and local government web resources and services.